Terminal Aerodrome Forecast
Issued by NWS

Home | Current Version | Previous Version | Text Only | Print | Product List | Glossary On
Versions: 1 2 3 4 5 6 7 8 9 10 11 12 13
117
FTUS46 KHNX 251125
TAFMER
TAF
KMER 251125Z 2512/2612 33010KT P6SM VCSH BKN050 BKN100
     FM252000 14006KT P6SM -SHRA SCT030 BKN050
      TEMPO 2521/2601 3SM TSRA BR OVC030CB
     FM260300 33006KT P6SM SCT025 BKN040
      AMD NOT SKED=

USA.gov is the U.S. government's official web portal to all federal, state and local government web resources and services.